Terminal Aerodrome Forecast
Issued by NWS

Home | Current Version | Previous Version | Text Only | Print | Product List | Glossary On
Versions: 1 2 3 4 5 6 7 8 9 10 11 12 13 14 15 16 17 18 19 20 21 22 23 24
000
FTUS42 KTBW 190800 AAD
TAFPGD
TAF AMD
KPGD 190839Z 1909/2006 26007KT P6SM SCT025 BKN050
     FM191600 27014G22KT P6SM FEW020 SCT035
     FM200100 29010KT P6SM SCT250
     FM200400 VRB06KT P6SM FEW040 SCT250=

USA.gov is the U.S. government's official web portal to all federal, state and local government web resources and services.